Time;durP1;ratioP1;P1;durP2;ratioP2;P2;SDS_P1;SDS_P2;PMS_P1;PMS_P2;Temp;Humidity;BMP_temperature;BMP_pressure;BME280_temperature;BME280_humidity;BME280_pressure;Samples;Min_cycle;Max_cycle;Signal;HPM_P1;HPM_P2
2021/12/10 00:01:47;;;;;;;39.42;37.22;;;;;;;20.25;39.98;99542.13;4958443;28;20121;-82
2021/12/10 00:04:14;;;;;;;40.40;38.30;;;;;;;20.24;39.97;99533.13;4958462;29;20515;-80
2021/12/10 00:06:48;;;;;;;39.58;37.42;;;;;;;20.24;39.71;99529.56;4958699;29;20041;-77
2021/12/10 00:09:18;;;;;;;39.42;37.10;;;;;;;20.23;39.93;99526.00;4958588;29;20039;-79
2021/12/10 00:11:50;;;;;;;36.85;34.85;;;;;;;20.24;40.02;99524.09;4958198;28;20109;-77
2021/12/10 00:14:16;;;;;;;38.15;35.75;;;;;;;20.22;39.92;99509.91;4958212;29;20027;-79
2021/12/10 00:16:42;;;;;;;38.33;36.33;;;;;;;20.23;40.20;99506.03;4958623;29;20027;-75
2021/12/10 00:19:19;;;;;;;40.13;37.45;;;;;;;20.25;40.02;99499.06;4958129;29;20368;-79
2021/12/10 00:21:46;;;;;;;37.53;35.40;;;;;;;20.26;40.24;99499.84;4958100;29;20114;-79
2021/12/10 00:24:12;;;;;;;39.10;36.85;;;;;;;20.26;39.89;99494.38;4957945;29;20042;-80
2021/12/10 00:26:38;;;;;;;37.55;35.45;;;;;;;20.25;40.08;99492.78;4957983;29;20043;-81
2021/12/10 00:29:06;;;;;;;39.50;37.28;;;;;;;20.24;40.07;99478.28;4958024;28;20038;-78
2021/12/10 00:34:21;;;;;;;39.10;36.85;;;;;;;20.24;40.03;99466.50;4957772;29;20039;-79
2021/12/10 00:36:47;;;;;;;38.88;36.65;;;;;;;20.23;40.02;99459.41;4958185;29;20035;-80
2021/12/10 00:39:17;;;;;;;39.17;36.97;;;;;;;20.21;40.18;99446.06;4957168;28;20039;-79
2021/12/10 00:41:43;;;;;;;37.40;35.50;;;;;;;20.21;39.82;99437.84;4958434;29;20031;-78
2021/12/10 00:44:08;;;;;;;39.90;37.55;;;;;;;20.21;40.04;99440.56;4957312;29;20035;-77
2021/12/10 00:46:34;;;;;;;38.22;36.30;;;;;;;20.20;39.83;99427.97;4956434;29;20038;-78
2021/12/10 00:49:00;;;;;;;38.95;36.95;;;;;;;20.20;39.98;99427.97;4957602;29;20062;-80
2021/12/10 00:51:25;;;;;;;41.25;38.63;;;;;;;20.19;40.12;99426.41;4957205;29;20358;-79
2021/12/10 00:53:52;;;;;;;38.00;36.00;;;;;;;20.18;40.02;99418.50;4957623;29;20032;-79
2021/12/10 00:56:18;;;;;;;40.35;38.25;;;;;;;20.17;39.98;99414.16;4957798;28;20039;-78
2021/12/10 00:58:44;;;;;;;39.13;37.03;;;;;;;20.16;39.87;99393.34;4957789;29;20035;-78
2021/12/10 01:01:14;;;;;;;39.55;37.35;;;;;;;20.16;39.87;99393.34;4955895;29;20045;-79
2021/12/10 01:03:50;;;;;;;37.92;36.03;;;;;;;20.15;39.81;99384.34;4958034;29;20035;-79
2021/12/10 01:06:18;;;;;;;40.30;38.03;;;;;;;20.15;39.93;99380.81;4957198;29;20117;-78
2021/12/10 01:08:46;;;;;;;39.85;37.75;;;;;;;20.13;40.06;99367.41;4957224;29;20032;-79
2021/12/10 01:11:32;;;;;;;39.25;37.05;;;;;;;20.12;40.14;99374.06;4957148;29;20023;-78
2021/12/10 01:14:10;;;;;;;38.38;36.17;;;;;;;20.12;39.80;99371.31;4957516;29;20041;-78
2021/12/10 01:27:34;;;;;;;39.95;37.92;;;;;;;20.07;39.62;99328.47;4957350;29;20039;-78
2021/12/10 01:30:25;;;;;;;40.20;37.83;;;;;;;20.06;39.72;99326.88;4957227;29;20035;-80
2021/12/10 01:32:55;;;;;;;40.78;38.63;;;;;;;20.05;39.47;99319.78;4957146;29;20035;-78
2021/12/10 01:35:28;;;;;;;41.70;39.45;;;;;;;20.05;39.57;99310.75;4955127;29;20027;-78
2021/12/10 01:37:55;;;;;;;40.15;38.13;;;;;;;20.03;39.60;99305.66;4957339;29;20062;-78
2021/12/10 01:40:22;;;;;;;39.95;37.95;;;;;;;20.03;39.84;99302.91;4956592;29;20042;-78
2021/12/10 01:42:52;;;;;;;38.80;36.83;;;;;;;20.03;39.75;99291.13;4956901;28;20035;-79
2021/12/10 01:45:23;;;;;;;40.60;38.50;;;;;;;20.02;39.76;99295.00;4956581;29;20031;-77
2021/12/10 01:47:57;;;;;;;40.58;38.45;;;;;;;20.01;39.42;99294.22;4956602;29;20457;-77
2021/12/10 01:50:24;;;;;;;40.95;38.80;;;;;;;20.01;39.42;99287.94;4956380;29;20142;-77
2021/12/10 01:52:53;;;;;;;40.80;38.53;;;;;;;20.00;39.72;99275.38;4956491;28;20054;-79
2021/12/10 01:55:21;;;;;;;42.13;39.72;;;;;;;19.99;39.59;99273.78;4956381;28;20035;-78
2021/12/10 01:57:49;;;;;;;41.78;39.58;;;;;;;19.98;39.80;99272.97;4957300;28;20345;-76
2021/12/10 02:00:16;;;;;;;40.30;38.15;;;;;;;19.98;39.25;99270.25;4956329;29;20039;-75
2021/12/10 02:02:45;;;;;;;39.17;37.10;;;;;;;19.97;39.28;99271.38;4956250;29;20039;-77
2021/12/10 02:05:11;;;;;;;38.95;37.00;;;;;;;19.97;39.55;99265.09;4956262;29;20031;-77
2021/12/10 02:07:37;;;;;;;38.85;36.95;;;;;;;19.95;39.51;99259.94;4956236;29;20456;-78
2021/12/10 02:10:06;;;;;;;38.45;36.47;;;;;;;19.96;39.23;99258.00;4956207;28;20043;-79
2021/12/10 02:12:32;;;;;;;;;;;;;;;19.93;39.63;99250.47;4956384;29;20027;-79
2021/12/10 02:15:02;;;;;;;37.22;35.42;;;;;;;19.91;39.55;99239.84;4955769;29;19969;-78
2021/12/10 02:17:35;;;;;;;41.13;38.70;;;;;;;19.92;39.50;99246.13;4956234;29;20367;-79
2021/12/10 02:20:17;;;;;;;39.25;37.15;;;;;;;19.89;39.31;99242.94;4956321;29;20137;-79
2021/12/10 02:22:44;;;;;;;38.63;36.72;;;;;;;19.89;39.45;99251.16;4956056;29;20380;-78
2021/12/10 02:25:10;;;;;;;40.13;37.85;;;;;;;19.88;39.36;99237.78;4955725;29;20055;-78
2021/12/10 02:27:36;;;;;;;39.45;37.45;;;;;;;19.88;39.23;99221.34;4955421;28;20480;-78
2021/12/10 02:30:06;;;;;;;39.63;37.63;;;;;;;19.87;39.23;99217.00;4955828;29;20063;-77
2021/12/10 02:32:32;;;;;;;39.65;37.65;;;;;;;19.87;39.66;99200.56;4955592;29;20032;-78
2021/12/10 02:34:57;;;;;;;38.65;36.75;;;;;;;19.85;39.49;99194.63;4955620;29;20038;-78
2021/12/10 02:37:24;;;;;;;41.83;39.60;;;;;;;19.84;39.28;99191.09;4954300;29;20129;-78
2021/12/10 02:39:49;;;;;;;39.80;37.80;;;;;;;19.84;39.37;99185.59;4955651;29;20043;-78
2021/12/10 02:42:15;;;;;;;39.95;37.90;;;;;;;19.83;39.49;99181.28;4956097;28;20400;-78
2021/12/10 02:44:40;;;;;;;40.03;38.03;;;;;;;19.83;39.51;99174.97;4938517;29;20039;-77
2021/12/10 02:47:06;;;;;;;41.92;39.72;;;;;;;19.82;39.21;99157.75;4938267;29;20527;-80
2021/12/10 02:49:32;;;;;;;39.10;37.10;;;;;;;19.80;39.20;99160.03;4955511;28;20031;-78
2021/12/10 02:51:58;;;;;;;38.90;37.00;;;;;;;19.80;39.26;99156.50;4955567;29;20031;-79
2021/12/10 02:54:33;;;;;;;41.17;39.08;;;;;;;19.80;39.42;99153.75;4955353;28;20038;-79
2021/12/10 02:57:01;;;;;;;41.88;39.88;;;;;;;19.79;39.34;99150.22;4955259;28;20374;-78
2021/12/10 02:59:26;;;;;;;42.28;39.92;;;;;;;19.78;39.19;99142.34;4955262;29;20490;-78
2021/12/10 03:01:53;;;;;;;45.03;42.72;;;;;;;19.77;39.22;99143.50;4955339;29;20032;-78
2021/12/10 03:04:19;;;;;;;56.38;53.47;;;;;;;19.76;38.95;99139.97;4954818;28;20031;-78
2021/12/10 03:06:49;;;;;;;51.00;48.60;;;;;;;19.76;39.14;99139.97;4955317;29;20046;-78
2021/12/10 03:09:18;;;;;;;52.25;49.75;;;;;;;19.75;39.15;99138.34;4955834;29;20452;-78
2021/12/10 03:11:46;;;;;;;42.53;40.35;;;;;;;19.75;39.35;99132.06;4955893;29;20035;-78
2021/12/10 03:14:13;;;;;;;39.45;37.15;;;;;;;19.74;39.22;99135.97;4955116;29;20412;-78
2021/12/10 03:16:41;;;;;;;39.33;37.15;;;;;;;19.73;39.44;99132.44;4955413;29;20032;-78
2021/12/10 03:19:07;;;;;;;38.42;36.47;;;;;;;19.72;39.20;99119.84;4955066;29;20033;-78
2021/12/10 03:21:34;;;;;;;39.22;37.25;;;;;;;19.72;39.21;99116.31;4955578;28;20035;-78
2021/12/10 03:24:00;;;;;;;39.13;37.15;;;;;;;19.70;39.54;99108.44;4955099;29;20055;-78
2021/12/10 03:26:26;;;;;;;38.95;36.85;;;;;;;19.69;39.24;99106.84;4955046;28;20435;-78
2021/12/10 03:28:53;;;;;;;38.63;36.63;;;;;;;19.69;39.35;99106.84;4954957;29;20028;-78
2021/12/10 03:31:21;;;;;;;38.65;36.67;;;;;;;19.68;39.45;99102.53;4955112;28;20063;-78
2021/12/10 03:33:47;;;;;;;38.53;36.45;;;;;;;19.67;39.32;99096.22;4955619;28;20069;-79
2021/12/10 03:36:14;;;;;;;37.35;35.45;;;;;;;19.68;39.33;99091.56;4938114;29;20150;-79
2021/12/10 03:38:40;;;;;;;37.40;35.50;;;;;;;19.67;39.26;99089.97;4955137;29;20059;-80
2021/12/10 03:41:07;;;;;;;38.88;36.60;;;;;;;19.67;39.10;99087.22;4955085;29;20050;-81
2021/12/10 03:43:33;;;;;;;40.50;38.25;;;;;;;19.66;39.23;99074.66;4954971;29;20509;-79
2021/12/10 03:45:59;;;;;;;38.70;36.78;;;;;;;19.65;39.52;99079.34;4953744;29;20039;-78
2021/12/10 03:48:30;;;;;;;40.88;38.78;;;;;;;19.64;39.46;99064.03;4954971;29;20030;-78
2021/12/10 03:50:58;;;;;;;39.13;37.08;;;;;;;19.64;39.46;99061.28;4955554;29;20059;-79
2021/12/10 03:53:24;;;;;;;38.08;36.17;;;;;;;19.64;39.44;99046.78;4955319;29;20528;-79
2021/12/10 03:55:50;;;;;;;37.97;35.97;;;;;;;19.63;39.12;99045.19;4954633;29;20062;-79
2021/12/10 03:58:17;;;;;;;39.13;37.13;;;;;;;19.62;39.40;99046.34;4955135;29;20051;-78
2021/12/10 04:00:51;;;;;;;42.15;40.05;;;;;;;19.61;39.45;99029.09;4954734;29;20031;-78
2021/12/10 04:03:20;;;;;;;39.38;37.28;;;;;;;19.61;39.15;99022.84;4954754;29;20491;-78
2021/12/10 04:05:47;;;;;;;41.80;39.72;;;;;;;19.61;39.21;99022.84;4937840;29;20038;-79
2021/12/10 04:08:12;;;;;;;40.33;38.25;;;;;;;19.60;39.55;99013.00;4954076;29;20042;-78
2021/12/10 04:10:38;;;;;;;42.58;40.47;;;;;;;19.59;39.17;99004.00;4954688;29;20039;-78
2021/12/10 04:13:05;;;;;;;41.67;39.67;;;;;;;19.58;39.21;99002.41;4954998;29;20522;-79
2021/12/10 04:15:34;;;;;;;42.13;40.03;;;;;;;19.59;39.35;99001.25;4956206;28;20039;-78
2021/12/10 04:18:01;;;;;;;41.03;38.92;;;;;;;19.58;39.31;98990.63;4958175;29;20468;-78
2021/12/10 04:20:29;;;;;;;42.40;40.30;;;;;;;19.57;39.30;98992.59;4958068;29;20031;-78
2021/12/10 04:22:55;;;;;;;40.33;38.28;;;;;;;19.57;39.47;98986.31;4958379;29;20043;-79
2021/12/10 04:25:24;;;;;;;40.50;38.50;;;;;;;19.55;39.15;98986.66;4958089;29;20396;-76
2021/12/10 04:27:51;;;;;;;42.92;40.72;;;;;;;19.55;39.42;98974.91;4957764;29;20042;-78
2021/12/10 04:30:17;;;;;;;43.28;41.17;;;;;;;19.54;39.16;98974.13;4958023;29;20083;-78
2021/12/10 04:32:43;;;;;;;44.83;42.58;;;;;;;19.55;39.22;98966.69;4957935;29;20058;-78
2021/12/10 04:35:11;;;;;;;44.00;41.83;;;;;;;19.54;39.28;98963.16;4957987;29;20069;-80
2021/12/10 04:37:37;;;;;;;45.05;42.75;;;;;;;19.52;39.14;98957.22;4957513;29;20043;-78
2021/12/10 04:40:05;;;;;;;43.85;41.45;;;;;;;19.53;39.10;98955.28;4958607;28;20031;-78
2021/12/10 04:42:31;;;;;;;43.08;40.88;;;;;;;19.52;39.21;98942.75;4958427;28;20166;-78
2021/12/10 04:44:58;;;;;;;41.45;39.35;;;;;;;19.51;39.31;98941.16;4957644;29;20067;-78
2021/12/10 04:47:26;;;;;;;41.22;39.03;;;;;;;19.51;39.37;98935.69;4957768;29;20515;-75
2021/12/10 04:49:51;;;;;;;47.38;45.10;;;;;;;19.51;39.21;98936.47;4958187;29;20027;-78
2021/12/10 04:52:17;;;;;;;46.83;44.53;;;;;;;19.50;39.33;98923.13;4957489;29;20038;-79
2021/12/10 04:54:43;;;;;;;48.53;46.13;;;;;;;19.49;39.33;98919.59;4958165;28;20062;-79
2021/12/10 04:57:09;;;;;;;54.47;51.97;;;;;;;19.49;39.49;98918.78;4957870;28;20051;-78
2021/12/10 04:59:37;;;;;;;52.75;50.15;;;;;;;19.48;39.32;98917.19;4940367;29;20031;-78
2021/12/10 05:02:05;;;;;;;47.08;44.88;;;;;;;19.48;39.12;98904.31;4958047;28;20031;-79
2021/12/10 05:04:31;;;;;;;47.05;44.75;;;;;;;19.46;39.28;98907.38;4957420;29;20031;-79
2021/12/10 05:06:58;;;;;;;46.17;43.97;;;;;;;19.46;39.35;98904.66;4957348;29;20089;-79
2021/12/10 05:09:23;;;;;;;46.22;44.03;;;;;;;19.46;39.48;98898.38;4957653;29;20031;-78
2021/12/10 05:11:50;;;;;;;44.03;41.92;;;;;;;19.46;39.28;98901.13;4957361;29;20039;-78
2021/12/10 05:14:17;;;;;;;50.53;47.92;;;;;;;19.45;39.51;98892.13;4957371;29;20027;-78
2021/12/10 05:16:47;;;;;;;50.03;47.42;;;;;;;19.44;39.11;98890.50;4957220;28;20031;-78
2021/12/10 05:19:16;;;;;;;51.17;48.78;;;;;;;19.45;39.33;98885.81;4957482;28;20028;-78
2021/12/10 05:21:45;;;;;;;64.38;61.17;;;;;;;19.44;39.14;98885.03;4956964;29;20110;-78
2021/12/10 05:24:11;;;;;;;61.47;58.58;;;;;;;19.43;39.18;98883.44;4957091;28;20035;-78
2021/12/10 05:26:37;;;;;;;49.88;47.47;;;;;;;19.43;39.36;98891.66;4939586;29;20051;-78
2021/12/10 05:29:05;;;;;;;49.42;46.97;;;;;;;19.42;39.04;98889.25;4957415;29;20039;-78
2021/12/10 05:31:30;;;;;;;46.17;43.97;;;;;;;19.42;39.32;98889.25;4956925;29;20039;-80
2021/12/10 05:33:56;;;;;;;47.38;45.03;;;;;;;19.41;39.40;98884.94;4956911;29;20039;-78
2021/12/10 05:36:21;;;;;;;47.75;45.35;;;;;;;19.40;39.23;98878.66;4955902;29;20490;-79
2021/12/10 05:38:46;;;;;;;47.13;44.30;;;;;;;19.40;39.00;98886.06;4957353;28;20364;-79
2021/12/10 05:41:12;;;;;;;49.60;47.10;;;;;;;19.39;39.36;98873.53;4939672;29;20031;-78
2021/12/10 05:43:41;;;;;;;51.97;49.47;;;;;;;19.39;39.31;98868.06;4956563;29;20038;-78
2021/12/10 05:46:07;;;;;;;50.33;47.92;;;;;;;19.38;39.27;98878.22;4956684;29;20040;-78
2021/12/10 05:48:32;;;;;;;52.53;49.92;;;;;;;19.38;38.97;98872.75;4939374;29;20495;-79
2021/12/10 05:50:58;;;;;;;49.28;46.88;;;;;;;19.38;39.14;98869.22;4956620;28;20481;-78
2021/12/10 05:53:24;;;;;;;48.90;46.50;;;;;;;19.37;39.12;98865.66;4956674;29;20472;-78
2021/12/10 05:55:49;;;;;;;50.47;48.08;;;;;;;19.37;39.11;98868.38;4956750;29;20027;-79
2021/12/10 05:58:16;;;;;;;49.83;47.28;;;;;;;19.37;39.18;98864.88;4956807;29;20059;-79
2021/12/10 06:00:50;;;;;;;47.17;44.88;;;;;;;19.35;39.17;98865.22;4956442;28;20071;-79
2021/12/10 06:03:16;;;;;;;49.35;46.95;;;;;;;19.34;39.08;98869.09;4956502;29;20055;-78
2021/12/10 06:05:44;;;;;;;53.15;50.47;;;;;;;19.34;39.27;98876.50;4956179;29;20106;-78
2021/12/10 06:08:10;;;;;;;45.80;43.55;;;;;;;19.34;39.33;98868.28;4956537;29;20150;-78
2021/12/10 06:10:39;;;;;;;44.53;42.15;;;;;;;19.33;39.20;98874.94;4956470;29;20039;-79
2021/12/10 06:13:06;;;;;;;43.35;41.25;;;;;;;19.32;39.13;98874.09;4955969;29;20059;-78
2021/12/10 06:15:31;;;;;;;42.75;40.75;;;;;;;19.32;39.27;98868.63;4956312;28;20464;-77
2021/12/10 06:17:58;;;;;;;43.85;41.75;;;;;;;19.31;39.24;98864.31;4956171;29;20039;-78
2021/12/10 06:20:32;;;;;;;42.60;40.50;;;;;;;19.30;39.04;98862.69;4938780;29;20083;-79
2021/12/10 06:23:00;;;;;;;43.13;41.03;;;;;;;19.30;39.16;98859.97;4956395;29;20042;-78
2021/12/10 06:25:26;;;;;;;43.42;41.22;;;;;;;19.30;39.31;98859.16;4956201;28;20089;-79
2021/12/10 06:27:52;;;;;;;44.60;42.45;;;;;;;19.29;39.36;98858.38;4956169;29;20110;-80
2021/12/10 06:30:31;;;;;;;44.13;42.03;;;;;;;19.29;39.26;98852.91;4955960;29;20551;-78
2021/12/10 06:32:59;;;;;;;43.85;41.72;;;;;;;19.28;39.31;98851.31;4956725;29;20031;-78
2021/12/10 06:35:27;;;;;;;44.97;42.88;;;;;;;19.28;39.56;98861.47;4956709;29;20043;-78
2021/12/10 06:37:53;;;;;;;42.40;40.40;;;;;;;19.28;39.25;98858.72;4955249;28;20400;-79
2021/12/10 06:40:23;;;;;;;43.33;41.33;;;;;;;19.26;39.17;98848.13;4955773;29;20035;-78
2021/12/10 06:42:50;;;;;;;45.75;43.35;;;;;;;19.25;39.37;98852.00;4955729;29;20042;-78
2021/12/10 06:45:17;;;;;;;43.63;41.53;;;;;;;19.26;39.23;98861.81;4938739;29;20031;-78
2021/12/10 06:47:47;;;;;;;44.72;42.50;;;;;;;19.24;39.12;98864.91;4954275;28;20482;-77
2021/12/10 06:50:15;;;;;;;46.03;43.67;;;;;;;19.25;39.32;98868.41;4955929;29;20047;-79
2021/12/10 06:52:41;;;;;;;46.40;44.10;;;;;;;19.24;39.18;98869.56;4955491;29;20111;-79
2021/12/10 06:55:07;;;;;;;45.83;43.53;;;;;;;19.24;39.27;98877.78;4955618;29;20039;-76
2021/12/10 06:57:34;;;;;;;46.92;44.63;;;;;;;19.24;39.22;98881.31;4955608;28;20126;-75
2021/12/10 07:00:00;;;;;;;45.08;42.97;;;;;;;19.23;39.13;98882.47;4955599;29;20388;-75
2021/12/10 07:02:26;;;;;;;46.03;43.80;;;;;;;19.24;39.39;98878.56;4955500;29;20543;-75
2021/12/10 07:04:52;;;;;;;48.92;46.58;;;;;;;19.24;39.24;98877.78;4955902;28;20384;-76
2021/12/10 07:07:17;;;;;;;49.47;47.10;;;;;;;19.23;39.31;98871.53;4955871;29;20041;-75
2021/12/10 07:09:43;;;;;;;51.70;49.20;;;;;;;19.24;39.34;98866.84;4953994;29;20037;-75
2021/12/10 07:12:08;;;;;;;50.60;48.20;;;;;;;19.23;39.22;98868.78;4955397;29;20035;-75
2021/12/10 07:14:35;;;;;;;51.03;48.53;;;;;;;19.24;39.53;98875.06;4955537;29;20039;-75
2021/12/10 07:17:02;;;;;;;56.67;53.97;;;;;;;19.24;39.13;98866.84;4938343;29;20491;-76
2021/12/10 07:19:28;;;;;;;50.90;48.58;;;;;;;19.23;39.35;98868.00;4955652;29;20455;-78
2021/12/10 07:21:54;;;;;;;54.03;51.33;;;;;;;19.23;39.35;98866.03;4955410;29;20469;-78
2021/12/10 07:24:20;;;;;;;39.13;37.03;;;;;;;19.21;39.07;98873.00;4955248;29;20059;-80
2021/12/10 07:26:46;;;;;;;35.60;33.65;;;;;;;19.21;39.19;98873.81;4955164;28;20452;-78
2021/12/10 07:29:13;;;;;;;34.17;32.47;;;;;;;19.21;39.15;98873.81;4955109;29;20110;-78
2021/12/10 07:31:40;;;;;;;33.92;32.10;;;;;;;19.20;39.11;98874.13;4955089;28;20456;-79
2021/12/10 07:34:07;;;;;;;34.58;32.88;;;;;;;19.19;39.18;98864.34;4956165;28;20031;-78
2021/12/10 07:36:33;;;;;;;33.30;31.70;;;;;;;19.17;39.10;98872.88;4955165;29;20038;-78
2021/12/10 07:38:59;;;;;;;34.42;32.72;;;;;;;19.17;39.30;98872.09;4955304;29;20031;-78
2021/12/10 07:41:26;;;;;;;34.30;32.63;;;;;;;19.17;38.95;98866.63;4938084;29;20027;-78
2021/12/10 07:43:52;;;;;;;35.03;33.10;;;;;;;19.16;39.08;98871.31;4954885;28;20031;-78
2021/12/10 07:46:18;;;;;;;34.55;32.90;;;;;;;19.15;39.28;98871.63;4955068;28;20063;-77
2021/12/10 07:48:45;;;;;;;35.15;33.45;;;;;;;19.15;38.92;98874.38;4955404;28;20074;-78
2021/12/10 07:51:15;;;;;;;34.25;32.55;;;;;;;19.13;39.07;98869.28;4957760;29;20514;-78
2021/12/10 07:53:42;;;;;;;35.17;33.42;;;;;;;19.14;39.14;98870.06;4959372;29;20083;-78
2021/12/10 07:56:10;;;;;;;34.80;33.00;;;;;;;19.13;39.12;98866.53;4958748;28;20042;-79
2021/12/10 07:58:37;;;;;;;35.40;33.60;;;;;;;19.13;39.10;98876.69;4958998;29;20058;-78
2021/12/10 08:01:08;;;;;;;35.75;33.95;;;;;;;19.12;39.30;98880.53;4941632;29;20086;-78
2021/12/10 08:03:33;;;;;;;35.50;33.70;;;;;;;19.11;39.45;98884.44;4958590;29;20027;-79
2021/12/10 08:05:59;;;;;;;34.83;33.13;;;;;;;19.10;39.22;98886.38;4958714;28;20032;-79
2021/12/10 08:08:24;;;;;;;35.28;33.47;;;;;;;19.10;39.25;98880.91;4958179;29;20391;-78
2021/12/10 08:10:50;;;;;;;36.58;34.55;;;;;;;19.10;39.19;98880.91;4958568;28;20069;-83
2021/12/10 08:13:17;;;;;;;55.22;41.75;;;;;;;19.14;39.80;98881.00;4941343;29;20039;-77
2021/12/10 08:15:43;;;;;;;43.90;39.47;;;;;;;19.17;40.30;98875.63;4958973;28;20049;-78
2021/12/10 08:18:09;;;;;;;44.63;39.90;;;;;;;19.18;40.35;98887.41;4958160;28;20126;-79
2021/12/10 08:20:35;;;;;;;41.72;37.38;;;;;;;19.17;40.18;98891.25;4958168;28;20460;-78
2021/12/10 08:23:00;;;;;;;40.30;36.55;;;;;;;19.16;40.46;98879.50;4957852;29;20046;-81
2021/12/10 08:25:27;;;;;;;39.33;35.60;;;;;;;19.18;40.51;98884.66;4958446;28;20054;-82
2021/12/10 08:27:53;;;;;;;39.60;36.25;;;;;;;19.16;40.57;98882.25;4957681;29;20028;-82
2021/12/10 08:30:21;;;;;;;39.53;35.65;;;;;;;19.16;40.76;98886.94;4958170;29;20047;-82
2021/12/10 08:32:48;;;;;;;39.35;36.05;;;;;;;19.16;40.62;98887.72;4957945;29;20053;-82
2021/12/10 08:35:19;;;;;;;37.45;34.22;;;;;;;19.15;40.62;98886.16;4956383;28;20086;-81
2021/12/10 08:37:44;;;;;;;36.78;34.00;;;;;;;19.14;40.52;98889.22;4958428;29;20039;-84
2021/12/10 08:40:12;;;;;;;36.10;33.78;;;;;;;19.13;40.29;98873.94;4957783;29;20704;-82
2021/12/10 08:42:38;;;;;;;34.80;32.70;;;;;;;19.13;40.52;98876.69;4958276;29;20031;-81
2021/12/10 08:45:05;;;;;;;35.28;33.17;;;;;;;19.12;40.20;98878.59;4940325;29;20531;-80
2021/12/10 08:47:30;;;;;;;36.33;33.60;;;;;;;19.12;40.54;98872.34;4957689;29;20035;-81
2021/12/10 08:49:56;;;;;;;36.63;34.33;;;;;;;19.13;40.46;98873.94;4956136;29;20039;-80
2021/12/10 08:52:21;;;;;;;37.28;34.78;;;;;;;19.12;40.78;98881.34;4940121;29;20039;-82
2021/12/10 08:54:47;;;;;;;36.80;34.65;;;;;;;19.11;40.51;98879.75;4958048;29;20043;-83
2021/12/10 08:57:13;;;;;;;34.55;32.70;;;;;;;19.12;40.71;98875.88;4956040;28;20051;-83
2021/12/10 08:59:40;;;;;;;36.78;34.35;;;;;;;19.11;40.78;98879.75;4957774;29;20067;-83
2021/12/10 09:02:09;;;;;;;37.20;34.80;;;;;;;19.12;40.71;98888.75;4939710;29;20456;-84
2021/12/10 09:04:35;;;;;;;36.13;33.70;;;;;;;19.11;41.09;98889.91;4957219;29;20031;-84
2021/12/10 09:07:07;;;;;;;37.33;34.88;;;;;;;19.10;41.06;98882.81;4957364;28;20035;-86
2021/12/10 09:09:36;;;;;;;37.03;34.92;;;;;;;19.09;40.84;98883.97;4957764;29;20034;-84
2021/12/10 09:12:07;;;;;;;38.20;35.65;;;;;;;19.09;40.96;98887.50;4957389;29;20457;-85
2021/12/10 09:14:42;;;;;;;36.88;34.42;;;;;;;19.10;40.71;98894.59;4957046;29;20031;-83
2021/12/10 09:17:09;;;;;;;35.92;33.75;;;;;;;19.11;41.09;98903.59;4957446;29;20039;-82
2021/12/10 09:19:36;;;;;;;38.10;35.65;;;;;;;19.11;40.89;98907.13;4956967;29;20034;-82
2021/12/10 09:22:04;;;;;;;37.35;34.85;;;;;;;19.14;40.94;98909.16;4956896;29;20464;-83
2021/12/10 09:24:29;;;;;;;36.72;34.63;;;;;;;19.16;40.76;98901.41;4957193;29;20054;-82
2021/12/10 09:26:57;;;;;;;38.33;36.15;;;;;;;19.19;40.88;98905.41;4940078;29;20035;-85
2021/12/10 09:29:30;;;;;;;36.45;34.40;;;;;;;19.22;41.10;98912.91;4956093;29;20121;-80
2021/12/10 09:31:56;;;;;;;37.38;35.33;;;;;;;19.24;40.83;98910.63;4956692;29;20073;-83
2021/12/10 09:34:21;;;;;;;36.78;34.85;;;;;;;19.28;40.74;98916.19;4939833;29;20035;-83
2021/12/10 09:36:48;;;;;;;37.90;35.85;;;;;;;19.30;40.63;98905.72;4939317;29;20039;-79
2021/12/10 09:39:15;;;;;;;37.08;34.97;;;;;;;19.33;40.79;98914.03;4956617;28;20511;-83
2021/12/10 09:41:41;;;;;;;36.58;34.40;;;;;;;19.36;40.53;98910.63;4956950;28;20046;-83
2021/12/10 09:44:08;;;;;;;37.03;35.13;;;;;;;19.39;40.43;98907.16;4957033;29;20434;-81
2021/12/10 09:46:35;;;;;;;38.83;36.63;;;;;;;19.42;40.71;98911.16;4956438;29;20042;-81
2021/12/10 09:49:01;;;;;;;38.72;36.60;;;;;;;19.45;40.42;98913.19;4956491;29;20074;-83
2021/12/10 09:51:31;;;;;;;38.40;36.33;;;;;;;19.48;40.50;98919.91;4955118;29;20027;-84
2021/12/10 09:54:00;;;;;;;38.90;36.65;;;;;;;19.51;40.18;98927.47;4955210;28;20023;-82
2021/12/10 09:56:26;;;;;;;38.65;36.60;;;;;;;19.53;40.13;98928.72;4939435;29;20089;-82
2021/12/10 09:58:53;;;;;;;39.47;37.35;;;;;;;19.56;39.89;98922.53;4955236;29;20113;-82
2021/12/10 10:01:28;;;;;;;38.00;36.00;;;;;;;19.58;39.99;98922.19;4956037;29;20039;-82
2021/12/10 10:04:01;;;;;;;39.05;36.75;;;;;;;19.59;39.89;98921.84;4956226;29;20217;-82
2021/12/10 10:06:34;;;;;;;39.30;37.25;;;;;;;19.62;39.66;98932.09;4956107;29;20380;-82
2021/12/10 10:09:00;;;;;;;39.20;36.88;;;;;;;19.64;39.57;98929.00;4954797;29;20050;-82
2021/12/10 10:11:30;;;;;;;36.03;34.08;;;;;;;19.66;39.60;98932.22;4956247;28;20043;-82
2021/12/10 10:13:56;;;;;;;38.83;36.50;;;;;;;19.67;39.25;98926.41;4955125;28;20106;-82
2021/12/10 10:16:24;;;;;;;37.08;35.25;;;;;;;19.70;39.08;98927.66;4954865;29;20118;-82
2021/12/10 10:18:51;;;;;;;36.35;34.35;;;;;;;19.72;39.37;98930.06;4955947;29;20039;-82
2021/12/10 10:21:25;;;;;;;37.53;35.50;;;;;;;19.73;39.23;98932.44;4954566;29;20037;-85
2021/12/10 10:23:51;;;;;;;36.95;34.95;;;;;;;19.74;39.13;98928.56;4955953;29;20086;-80
2021/12/10 10:26:31;;;;;;;39.45;37.28;;;;;;;19.77;38.78;98929.81;4955544;29;20066;-79
2021/12/10 10:29:08;;;;;;;40.33;38.22;;;;;;;19.77;38.99;98940.75;4955792;29;20133;-82
2021/12/10 10:31:37;;;;;;;39.80;37.70;;;;;;;19.78;38.66;98931.38;4954452;29;20027;-85
2021/12/10 10:34:03;;;;;;;39.42;37.33;;;;;;;19.79;38.71;98930.25;4938813;29;20035;-80
2021/12/10 10:36:33;;;;;;;39.20;36.95;;;;;;;19.81;38.54;98930.72;4955682;28;20050;-87
2021/12/10 10:39:15;;;;;;;38.38;36.30;;;;;;;19.82;38.57;98935.03;4956308;29;20379;-81
2021/12/10 10:41:45;;;;;;;39.42;37.42;;;;;;;19.82;38.43;98932.28;4955887;29;20162;-84
2021/12/10 10:44:10;;;;;;;40.83;38.58;;;;;;;19.83;38.19;98929.22;4955269;29;20059;-85
2021/12/10 10:46:36;;;;;;;39.05;36.83;;;;;;;19.84;38.43;98936.28;4955254;29;20034;-82
2021/12/10 10:49:03;;;;;;;39.85;37.75;;;;;;;19.86;38.42;98935.94;4938095;29;20039;-84
2021/12/10 10:51:40;;;;;;;39.88;37.78;;;;;;;19.87;38.16;98932.84;4955424;29;20031;-85
2021/12/10 10:54:11;;;;;;;39.35;37.10;;;;;;;19.89;38.14;98933.28;4955642;29;20059;-84
2021/12/10 10:56:41;;;;;;;39.88;37.65;;;;;;;19.89;38.02;98938.75;4954404;29;20038;-83
2021/12/10 10:59:12;;;;;;;39.17;37.17;;;;;;;19.90;38.23;98947.78;4955034;29;20031;-82
2021/12/10 11:01:48;;;;;;;38.67;36.58;;;;;;;19.90;38.02;98950.50;4955620;29;20031;-83
2021/12/10 11:04:25;;;;;;;39.03;37.00;;;;;;;19.92;38.07;98950.19;4955127;29;20035;-83
2021/12/10 11:06:55;;;;;;;38.33;36.35;;;;;;;19.92;38.01;98958.41;4955996;29;20035;-82
2021/12/10 11:09:24;;;;;;;37.63;35.83;;;;;;;19.92;38.25;98955.66;4955196;29;20035;-81
2021/12/10 11:12:15;;;;;;;37.38;35.10;;;;;;;19.93;37.76;98954.50;4954935;29;20055;-80
2021/12/10 11:14:50;;;;;;;38.38;36.28;;;;;;;19.93;37.96;98952.56;4954833;29;20417;-83
2021/12/10 11:17:40;;;;;;;39.05;36.88;;;;;;;19.94;37.80;98956.13;4955690;29;20027;-82
2021/12/10 11:20:14;;;;;;;39.88;37.80;;;;;;;19.93;38.00;98947.06;4954762;29;20038;-81
2021/12/10 11:22:56;;;;;;;40.63;38.25;;;;;;;19.94;37.57;98951.44;4954803;29;20031;-80
2021/12/10 11:25:44;;;;;;;39.28;37.28;;;;;;;19.94;38.02;98959.66;4958977;28;20074;-84
2021/12/10 11:28:14;;;;;;;38.28;36.17;;;;;;;19.96;37.99;98962.03;4958926;29;20027;-81
2021/12/10 11:30:44;;;;;;;39.08;36.78;;;;;;;19.95;37.89;98965.91;4957886;29;20035;-77
2021/12/10 11:33:16;;;;;;;40.80;38.53;;;;;;;19.96;37.86;98964.75;4958255;28;20027;-80
2021/12/10 11:35:46;;;;;;;38.38;36.47;;;;;;;19.96;37.60;98968.31;4957569;28;20081;-81